sensor_id;sensor_type;location;lat;lon;timestamp;pressure;altitude;pressure_sealevel;temperature;humidity
69173;BME280;56280;49.662;8.408;2023-09-08T00:02:02;100851.16;;;19.91;74.00
69173;BME280;56280;49.662;8.408;2023-09-08T00:04:28;100828.84;;;20.06;72.31
69173;BME280;56280;49.662;8.408;2023-09-08T00:06:53;100832.63;;;20.19;71.78
69173;BME280;56280;49.662;8.408;2023-09-08T00:09:18;100840.66;;;20.04;73.71
69173;BME280;56280;49.662;8.408;2023-09-08T00:11:43;100850.56;;;19.81;75.19
69173;BME280;56280;49.662;8.408;2023-09-08T00:14:09;100859.78;;;19.47;76.40
69173;BME280;56280;49.662;8.408;2023-09-08T00:16:34;100829.50;;;19.28;76.42
69173;BME280;56280;49.662;8.408;2023-09-08T00:18:59;100829.09;;;19.48;74.16
69173;BME280;56280;49.662;8.408;2023-09-08T00:21:25;100842.81;;;19.78;71.89
69173;BME280;56280;49.662;8.408;2023-09-08T00:23:51;100839.72;;;19.89;70.37
69173;BME280;56280;49.662;8.408;2023-09-08T00:26:17;100839.25;;;19.85;71.70
69173;BME280;56280;49.662;8.408;2023-09-08T00:28:42;100840.78;;;19.80;71.54
69173;BME280;56280;49.662;8.408;2023-09-08T00:31:07;100833.38;;;19.74;71.17
69173;BME280;56280;49.662;8.408;2023-09-08T00:33:32;100849.13;;;19.54;72.72
69173;BME280;56280;49.662;8.408;2023-09-08T00:35:58;100853.06;;;19.35;74.03
69173;BME280;56280;49.662;8.408;2023-09-08T00:38:24;100835.56;;;19.39;73.31
69173;BME280;56280;49.662;8.408;2023-09-08T00:40:49;100846.94;;;19.49;73.44
69173;BME280;56280;49.662;8.408;2023-09-08T00:43:14;100840.03;;;19.55;73.30
69173;BME280;56280;49.662;8.408;2023-09-08T00:45:43;100839.81;;;19.17;75.02
69173;BME280;56280;49.662;8.408;2023-09-08T00:48:09;100842.34;;;19.18;75.73
69173;BME280;56280;49.662;8.408;2023-09-08T00:50:36;100838.84;;;19.09;75.36
69173;BME280;56280;49.662;8.408;2023-09-08T00:53:02;100840.84;;;18.99;76.31
69173;BME280;56280;49.662;8.408;2023-09-08T00:55:28;100827.56;;;18.81;76.57
69173;BME280;56280;49.662;8.408;2023-09-08T00:57:53;100831.63;;;18.93;76.40
69173;BME280;56280;49.662;8.408;2023-09-08T01:00:19;100834.81;;;18.97;76.19
69173;BME280;56280;49.662;8.408;2023-09-08T01:02:44;100840.31;;;19.20;75.39
69173;BME280;56280;49.662;8.408;2023-09-08T01:05:10;100835.41;;;19.24;74.67
69173;BME280;56280;49.662;8.408;2023-09-08T01:07:35;100842.66;;;19.23;75.25
69173;BME280;56280;49.662;8.408;2023-09-08T01:10:01;100809.56;;;18.82;76.10
69173;BME280;56280;49.662;8.408;2023-09-08T01:12:29;100810.59;;;18.81;76.06
69173;BME280;56280;49.662;8.408;2023-09-08T01:14:55;100856.97;;;19.24;75.26
69173;BME280;56280;49.662;8.408;2023-09-08T01:17:20;100846.53;;;19.12;75.23
69173;BME280;56280;49.662;8.408;2023-09-08T01:19:47;100822.31;;;19.12;74.72
69173;BME280;56280;49.662;8.408;2023-09-08T01:25:09;100851.47;;;18.92;77.07
69173;BME280;56280;49.662;8.408;2023-09-08T01:27:39;100837.50;;;18.97;77.19
69173;BME280;56280;49.662;8.408;2023-09-08T01:30:06;100849.41;;;19.11;76.04
69173;BME280;56280;49.662;8.408;2023-09-08T01:32:32;100853.91;;;19.27;75.46
69173;BME280;56280;49.662;8.408;2023-09-08T01:34:59;100837.94;;;19.34;74.23
69173;BME280;56280;49.662;8.408;2023-09-08T01:37:25;100814.75;;;19.00;74.69
69173;BME280;56280;49.662;8.408;2023-09-08T01:39:50;100849.25;;;19.21;75.00
69173;BME280;56280;49.662;8.408;2023-09-08T01:42:16;100833.25;;;19.19;74.28
69173;BME280;56280;49.662;8.408;2023-09-08T01:44:41;100842.34;;;19.18;74.45
69173;BME280;56280;49.662;8.408;2023-09-08T01:47:06;100845.00;;;19.26;73.90
69173;BME280;56280;49.662;8.408;2023-09-08T01:49:31;100848.69;;;19.25;73.44
69173;BME280;56280;49.662;8.408;2023-09-08T01:51:57;100851.06;;;19.20;73.79
69173;BME280;56280;49.662;8.408;2023-09-08T01:54:22;100829.94;;;18.84;74.64
69173;BME280;56280;49.662;8.408;2023-09-08T01:56:47;100831.59;;;18.77;75.11
69173;BME280;56280;49.662;8.408;2023-09-08T01:59:12;100852.97;;;18.37;77.63
69173;BME280;56280;49.662;8.408;2023-09-08T02:01:38;100820.69;;;18.21;77.89
69173;BME280;56280;49.662;8.408;2023-09-08T02:04:03;100803.25;;;17.74;79.69
69173;BME280;56280;49.662;8.408;2023-09-08T02:06:29;100833.47;;;17.76;80.44
69173;BME280;56280;49.662;8.408;2023-09-08T02:08:54;100833.78;;;17.65;81.39
69173;BME280;56280;49.662;8.408;2023-09-08T02:11:19;100827.19;;;17.59;81.48
69173;BME280;56280;49.662;8.408;2023-09-08T02:13:44;100836.66;;;17.72;80.95
69173;BME280;56280;49.662;8.408;2023-09-08T02:16:16;100847.59;;;17.78;81.48
69173;BME280;56280;49.662;8.408;2023-09-08T02:18:42;100836.47;;;17.65;81.24
69173;BME280;56280;49.662;8.408;2023-09-08T02:21:08;100849.19;;;17.97;81.22
69173;BME280;56280;49.662;8.408;2023-09-08T02:30:17;100839.19;;;18.32;78.78
69173;BME280;56280;49.662;8.408;2023-09-08T02:32:42;100837.31;;;18.25;78.53
69173;BME280;56280;49.662;8.408;2023-09-08T02:35:08;100842.03;;;18.31;78.54
69173;BME280;56280;49.662;8.408;2023-09-08T02:37:33;100840.31;;;18.13;78.40
69173;BME280;56280;49.662;8.408;2023-09-08T02:39:58;100841.47;;;18.02;79.22
69173;BME280;56280;49.662;8.408;2023-09-08T02:42:24;100844.41;;;17.75;80.10
69173;BME280;56280;49.662;8.408;2023-09-08T02:44:49;100832.88;;;17.56;80.66
69173;BME280;56280;49.662;8.408;2023-09-08T02:47:14;100821.84;;;17.67;79.31
69173;BME280;56280;49.662;8.408;2023-09-08T02:49:39;100817.09;;;17.96;77.50
69173;BME280;56280;49.662;8.408;2023-09-08T02:52:05;100818.94;;;17.53;79.26
69173;BME280;56280;49.662;8.408;2023-09-08T02:54:30;100812.88;;;17.16;80.06
69173;BME280;56280;49.662;8.408;2023-09-08T02:56:55;100835.97;;;17.70;78.82
69173;BME280;56280;49.662;8.408;2023-09-08T02:59:21;100827.88;;;17.27;79.51
69173;BME280;56280;49.662;8.408;2023-09-08T03:01:46;100839.78;;;16.98;81.71
69173;BME280;56280;49.662;8.408;2023-09-08T03:04:11;100827.72;;;16.94;82.34
69173;BME280;56280;49.662;8.408;2023-09-08T03:06:37;100827.66;;;16.86;82.62
69173;BME280;56280;49.662;8.408;2023-09-08T03:09:02;100827.50;;;17.13;81.55
69173;BME280;56280;49.662;8.408;2023-09-08T03:11:27;100843.38;;;17.33;80.42
69173;BME280;56280;49.662;8.408;2023-09-08T03:13:53;100847.00;;;17.50;80.61
69173;BME280;56280;49.662;8.408;2023-09-08T03:16:18;100847.59;;;17.86;78.03
69173;BME280;56280;49.662;8.408;2023-09-08T03:18:44;100829.72;;;17.61;78.46
69173;BME280;56280;49.662;8.408;2023-09-08T03:21:09;100835.41;;;17.58;79.10
69173;BME280;56280;49.662;8.408;2023-09-08T03:23:43;100844.09;;;17.86;78.24
69173;BME280;56280;49.662;8.408;2023-09-08T03:26:09;100845.16;;;18.01;77.00
69173;BME280;56280;49.662;8.408;2023-09-08T03:28:35;100848.06;;;18.16;75.80
69173;BME280;56280;49.662;8.408;2023-09-08T03:31:01;100834.91;;;17.97;76.58
69173;BME280;56280;49.662;8.408;2023-09-08T03:33:27;100836.03;;;17.43;79.18
69173;BME280;56280;49.662;8.408;2023-09-08T03:35:52;100834.59;;;17.57;79.02
69173;BME280;56280;49.662;8.408;2023-09-08T03:38:17;100833.56;;;17.24;79.91
69173;BME280;56280;49.662;8.408;2023-09-08T03:40:43;100844.56;;;17.39;80.64
69173;BME280;56280;49.662;8.408;2023-09-08T03:43:08;100833.44;;;17.60;78.92
69173;BME280;56280;49.662;8.408;2023-09-08T03:45:34;100844.06;;;17.43;80.14
69173;BME280;56280;49.662;8.408;2023-09-08T03:47:59;100859.03;;;17.46;80.79
69173;BME280;56280;49.662;8.408;2023-09-08T03:50:24;100828.22;;;17.58;79.09
69173;BME280;56280;49.662;8.408;2023-09-08T03:52:50;100827.53;;;17.64;78.54
69173;BME280;56280;49.662;8.408;2023-09-08T03:55:15;100823.72;;;17.75;77.64
69173;BME280;56280;49.662;8.408;2023-09-08T03:57:40;100828.34;;;17.91;76.61
69173;BME280;56280;49.662;8.408;2023-09-08T04:00:06;100843.97;;;17.96;76.87
69173;BME280;56280;49.662;8.408;2023-09-08T04:02:32;100832.03;;;17.90;76.64
69173;BME280;56280;49.662;8.408;2023-09-08T04:04:58;100846.78;;;17.86;77.36
69173;BME280;56280;49.662;8.408;2023-09-08T04:07:23;100827.72;;;17.63;77.78
69173;BME280;56280;49.662;8.408;2023-09-08T04:09:48;100854.84;;;17.86;77.62
69173;BME280;56280;49.662;8.408;2023-09-08T04:12:14;100843.25;;;17.85;75.79
69173;BME280;56280;49.662;8.408;2023-09-08T04:14:39;100849.34;;;17.96;76.17
69173;BME280;56280;49.662;8.408;2023-09-08T04:17:04;100872.91;;;18.10;77.53
69173;BME280;56280;49.662;8.408;2023-09-08T04:19:29;100809.47;;;17.83;80.11
69173;BME280;56280;49.662;8.408;2023-09-08T04:21:55;100859.34;;;17.77;81.31
69173;BME280;56280;49.662;8.408;2023-09-08T04:24:20;100854.66;;;17.79;82.65
69173;BME280;56280;49.662;8.408;2023-09-08T04:26:45;100852.22;;;17.94;82.46
69173;BME280;56280;49.662;8.408;2023-09-08T04:29:10;100850.53;;;18.01;81.40
69173;BME280;56280;49.662;8.408;2023-09-08T04:31:36;100880.34;;;18.33;79.66
69173;BME280;56280;49.662;8.408;2023-09-08T04:34:01;100879.03;;;18.45;77.57
69173;BME280;56280;49.662;8.408;2023-09-08T04:36:27;100880.03;;;18.52;79.17
69173;BME280;56280;49.662;8.408;2023-09-08T04:38:52;100878.34;;;18.43;76.10
69173;BME280;56280;49.662;8.408;2023-09-08T04:41:17;100887.44;;;18.34;75.81
69173;BME280;56280;49.662;8.408;2023-09-08T04:43:45;100862.88;;;17.78;79.08
69173;BME280;56280;49.662;8.408;2023-09-08T04:46:10;100870.09;;;16.90;81.94
69173;BME280;56280;49.662;8.408;2023-09-08T04:48:35;100865.16;;;16.41;84.96
69173;BME280;56280;49.662;8.408;2023-09-08T04:51:00;100854.25;;;16.43;85.85
69173;BME280;56280;49.662;8.408;2023-09-08T04:53:26;100872.16;;;16.78;84.61
69173;BME280;56280;49.662;8.408;2023-09-08T04:55:51;100861.59;;;16.77;84.16
69173;BME280;56280;49.662;8.408;2023-09-08T04:58:17;100853.75;;;16.84;83.31
69173;BME280;56280;49.662;8.408;2023-09-08T05:00:42;100862.69;;;17.10;81.29
69173;BME280;56280;49.662;8.408;2023-09-08T05:03:07;100872.16;;;16.97;82.40
69173;BME280;56280;49.662;8.408;2023-09-08T05:05:33;100882.53;;;16.73;84.07
69173;BME280;56280;49.662;8.408;2023-09-08T05:07:58;100864.56;;;16.74;84.19
69173;BME280;56280;49.662;8.408;2023-09-08T05:10:23;100872.75;;;17.08;82.64
69173;BME280;56280;49.662;8.408;2023-09-08T05:12:49;100880.56;;;17.54;81.00
69173;BME280;56280;49.662;8.408;2023-09-08T05:15:15;100857.63;;;17.68;79.36
69173;BME280;56280;49.662;8.408;2023-09-08T05:17:41;100882.63;;;18.03;77.85
69173;BME280;56280;49.662;8.408;2023-09-08T05:20:07;100866.00;;;18.08;75.85
69173;BME280;56280;49.662;8.408;2023-09-08T05:22:32;100870.25;;;18.18;75.55
69173;BME280;56280;49.662;8.408;2023-09-08T05:24:58;100861.19;;;18.28;74.81
69173;BME280;56280;49.662;8.408;2023-09-08T05:27:23;100865.25;;;18.48;74.28
69173;BME280;56280;49.662;8.408;2023-09-08T05:29:48;100873.00;;;18.68;73.89
69173;BME280;56280;49.662;8.408;2023-09-08T05:32:14;100890.84;;;18.93;73.12
69173;BME280;56280;49.662;8.408;2023-09-08T05:34:39;100894.69;;;19.16;72.64
69173;BME280;56280;49.662;8.408;2023-09-08T05:37:04;100901.88;;;19.40;72.44
69173;BME280;56280;49.662;8.408;2023-09-08T05:39:29;100887.50;;;19.56;71.70
69173;BME280;56280;49.662;8.408;2023-09-08T05:41:55;100899.47;;;19.61;71.01
69173;BME280;56280;49.662;8.408;2023-09-08T05:44:20;100909.03;;;19.64;70.71
69173;BME280;56280;49.662;8.408;2023-09-08T05:46:45;100912.28;;;19.51;70.73
69173;BME280;56280;49.662;8.408;2023-09-08T05:49:11;100897.59;;;19.62;70.62
69173;BME280;56280;49.662;8.408;2023-09-08T05:51:36;100900.91;;;19.89;70.04
69173;BME280;56280;49.662;8.408;2023-09-08T05:54:01;100915.66;;;20.01;68.98
69173;BME280;56280;49.662;8.408;2023-09-08T05:56:30;100909.56;;;20.07;69.30
69173;BME280;56280;49.662;8.408;2023-09-08T05:58:56;100920.09;;;20.25;69.18
69173;BME280;56280;49.662;8.408;2023-09-08T06:01:21;100889.72;;;20.31;69.03
69173;BME280;56280;49.662;8.408;2023-09-08T06:03:46;100892.34;;;20.39;68.73
69173;BME280;56280;49.662;8.408;2023-09-08T06:06:12;100903.72;;;20.81;68.71
69173;BME280;56280;49.662;8.408;2023-09-08T06:08:38;100883.91;;;20.89;67.13
69173;BME280;56280;49.662;8.408;2023-09-08T06:11:03;100895.50;;;21.12;65.82
69173;BME280;56280;49.662;8.408;2023-09-08T06:13:28;100900.66;;;21.37;64.91
69173;BME280;56280;49.662;8.408;2023-09-08T06:15:54;100897.69;;;21.62;64.53
69173;BME280;56280;49.662;8.408;2023-09-08T06:18:19;100903.84;;;21.56;64.43
69173;BME280;56280;49.662;8.408;2023-09-08T06:20:47;100900.50;;;21.83;63.90
69173;BME280;56280;49.662;8.408;2023-09-08T06:23:13;100893.41;;;21.82;63.88
69173;BME280;56280;49.662;8.408;2023-09-08T06:25:39;100901.81;;;21.73;63.83
69173;BME280;56280;49.662;8.408;2023-09-08T06:28:05;100904.63;;;21.26;66.12
69173;BME280;56280;49.662;8.408;2023-09-08T06:30:30;100901.28;;;21.09;65.63
69173;BME280;56280;49.662;8.408;2023-09-08T06:32:55;100900.06;;;20.74;66.68
69173;BME280;56280;49.662;8.408;2023-09-08T06:35:21;100899.03;;;20.98;66.56
69173;BME280;56280;49.662;8.408;2023-09-08T06:37:46;100898.72;;;20.93;66.26
69173;BME280;56280;49.662;8.408;2023-09-08T06:40:11;100886.91;;;21.09;66.26
69173;BME280;56280;49.662;8.408;2023-09-08T06:42:37;100902.84;;;21.57;66.46
69173;BME280;56280;49.662;8.408;2023-09-08T06:45:02;100856.13;;;21.63;64.61
69173;BME280;56280;49.662;8.408;2023-09-08T06:47:27;100902.41;;;22.41;64.05
69173;BME280;56280;49.662;8.408;2023-09-08T06:49:53;100889.25;;;22.81;60.98
69173;BME280;56280;49.662;8.408;2023-09-08T06:52:18;100897.78;;;22.35;61.42
69173;BME280;56280;49.662;8.408;2023-09-08T06:54:43;100898.25;;;22.38;61.75
69173;BME280;56280;49.662;8.408;2023-09-08T06:57:12;100905.84;;;22.71;62.13
69173;BME280;56280;49.662;8.408;2023-09-08T06:59:37;100884.75;;;22.67;61.44
69173;BME280;56280;49.662;8.408;2023-09-08T07:02:03;100900.63;;;23.48;61.16
69173;BME280;56280;49.662;8.408;2023-09-08T07:04:29;100913.69;;;24.14;57.99
69173;BME280;56280;49.662;8.408;2023-09-08T07:06:54;100906.22;;;24.36;56.94
69173;BME280;56280;49.662;8.408;2023-09-08T07:09:20;100899.13;;;24.49;56.93
69173;BME280;56280;49.662;8.408;2023-09-08T07:11:45;100910.06;;;25.16;55.27
69173;BME280;56280;49.662;8.408;2023-09-08T07:14:10;100895.63;;;25.42;53.96
69173;BME280;56280;49.662;8.408;2023-09-08T07:16:36;100891.69;;;25.90;52.38
69173;BME280;56280;49.662;8.408;2023-09-08T07:19:01;100890.66;;;25.97;51.11
69173;BME280;56280;49.662;8.408;2023-09-08T07:21:27;100899.97;;;26.22;51.90
69173;BME280;56280;49.662;8.408;2023-09-08T07:23:52;100876.50;;;26.52;50.11
69173;BME280;56280;49.662;8.408;2023-09-08T07:26:19;100901.91;;;27.03;48.01
69173;BME280;56280;49.662;8.408;2023-09-08T07:28:44;100865.28;;;26.42;49.95
69173;BME280;56280;49.662;8.408;2023-09-08T07:31:10;100908.38;;;26.52;50.61
69173;BME280;56280;49.662;8.408;2023-09-08T07:33:35;100911.03;;;26.90;49.58
69173;BME280;56280;49.662;8.408;2023-09-08T07:36:08;100895.22;;;27.24;49.62
69173;BME280;56280;49.662;8.408;2023-09-08T07:38:34;100897.38;;;27.78;48.31
69173;BME280;56280;49.662;8.408;2023-09-08T07:41:01;100905.88;;;28.37;47.46
69173;BME280;56280;49.662;8.408;2023-09-08T07:43:27;100913.97;;;28.44;46.77
69173;BME280;56280;49.662;8.408;2023-09-08T07:45:52;100914.56;;;28.46;44.68
69173;BME280;56280;49.662;8.408;2023-09-08T07:48:17;100908.44;;;28.62;45.84
69173;BME280;56280;49.662;8.408;2023-09-08T07:50:42;100902.66;;;28.94;45.79
69173;BME280;56280;49.662;8.408;2023-09-08T07:53:08;100905.06;;;28.90;45.57
69173;BME280;56280;49.662;8.408;2023-09-08T07:55:33;100903.75;;;29.05;43.99
69173;BME280;56280;49.662;8.408;2023-09-08T07:57:58;100918.66;;;29.33;44.36
69173;BME280;56280;49.662;8.408;2023-09-08T08:00:24;100920.13;;;29.64;43.92
69173;BME280;56280;49.662;8.408;2023-09-08T08:02:53;100917.47;;;29.93;42.50
69173;BME280;56280;49.662;8.408;2023-09-08T08:05:19;100914.88;;;29.98;41.70
69173;BME280;56280;49.662;8.408;2023-09-08T08:07:44;100895.78;;;29.15;41.90
69173;BME280;56280;49.662;8.408;2023-09-08T08:10:11;100912.47;;;29.37;43.68
69173;BME280;56280;49.662;8.408;2023-09-08T08:12:37;100914.59;;;29.47;42.34
69173;BME280;56280;49.662;8.408;2023-09-08T08:15:03;100889.38;;;29.21;43.44
69173;BME280;56280;49.662;8.408;2023-09-08T08:17:29;100919.22;;;29.58;43.06
69173;BME280;56280;49.662;8.408;2023-09-08T08:19:55;100916.66;;;29.92;40.62
69173;BME280;56280;49.662;8.408;2023-09-08T08:22:21;100919.44;;;29.57;42.26
69173;BME280;56280;49.662;8.408;2023-09-08T08:24:46;100905.09;;;29.26;41.41
69173;BME280;56280;49.662;8.408;2023-09-08T08:27:11;100918.56;;;28.43;42.71
69173;BME280;56280;49.662;8.408;2023-09-08T08:29:37;100910.88;;;28.10;42.89
69173;BME280;56280;49.662;8.408;2023-09-08T08:32:02;100916.00;;;28.48;42.76
69173;BME280;56280;49.662;8.408;2023-09-08T08:34:27;100917.81;;;28.24;43.18
69173;BME280;56280;49.662;8.408;2023-09-08T08:36:53;100915.63;;;28.87;43.11
69173;BME280;56280;49.662;8.408;2023-09-08T08:39:18;100913.84;;;28.81;41.83
69173;BME280;56280;49.662;8.408;2023-09-08T08:41:43;100915.44;;;27.97;44.00
69173;BME280;56280;49.662;8.408;2023-09-08T08:44:09;100906.16;;;28.29;42.80
69173;BME280;56280;49.662;8.408;2023-09-08T08:46:36;100893.25;;;28.36;43.38
69173;BME280;56280;49.662;8.408;2023-09-08T08:49:03;100912.78;;;28.94;41.94
69173;BME280;56280;49.662;8.408;2023-09-08T08:51:30;100911.72;;;28.22;43.36
69173;BME280;56280;49.662;8.408;2023-09-08T08:53:56;100912.28;;;28.43;43.15
69173;BME280;56280;49.662;8.408;2023-09-08T08:56:22;100893.53;;;29.00;42.96
69173;BME280;56280;49.662;8.408;2023-09-08T08:58:49;100885.22;;;28.95;41.87
69173;BME280;56280;49.662;8.408;2023-09-08T09:01:16;100907.59;;;29.27;40.68
69173;BME280;56280;49.662;8.408;2023-09-08T09:03:43;100911.59;;;28.17;42.21
69173;BME280;56280;49.662;8.408;2023-09-08T09:06:10;100914.84;;;27.95;43.58
69173;BME280;56280;49.662;8.408;2023-09-08T09:08:36;100906.19;;;27.98;44.69
69173;BME280;56280;49.662;8.408;2023-09-08T09:11:02;100916.09;;;28.84;43.54
69173;BME280;56280;49.662;8.408;2023-09-08T09:13:27;100899.25;;;29.34;42.02
69173;BME280;56280;49.662;8.408;2023-09-08T09:15:58;100897.22;;;29.30;39.81
69173;BME280;56280;49.662;8.408;2023-09-08T09:18:23;100915.50;;;29.64;40.56
69173;BME280;56280;49.662;8.408;2023-09-08T09:20:55;100897.38;;;28.57;41.64
69173;BME280;56280;49.662;8.408;2023-09-08T09:23:28;100907.47;;;28.26;43.15
69173;BME280;56280;49.662;8.408;2023-09-08T09:25:54;100901.59;;;28.41;42.94
69173;BME280;56280;49.662;8.408;2023-09-08T09:28:19;100905.25;;;27.86;42.89
69173;BME280;56280;49.662;8.408;2023-09-08T09:30:49;100915.94;;;27.25;44.34
69173;BME280;56280;49.662;8.408;2023-09-08T09:33:16;100918.69;;;27.25;44.60
69173;BME280;56280;49.662;8.408;2023-09-08T09:35:44;100920.94;;;27.91;43.64
69173;BME280;56280;49.662;8.408;2023-09-08T09:38:10;100917.75;;;28.12;42.54
69173;BME280;56280;49.662;8.408;2023-09-08T09:40:37;100916.28;;;28.28;42.15
69173;BME280;56280;49.662;8.408;2023-09-08T09:43:02;100899.09;;;28.40;42.68
69173;BME280;56280;49.662;8.408;2023-09-08T09:45:30;100903.94;;;28.68;42.85
69173;BME280;56280;49.662;8.408;2023-09-08T09:47:55;100887.22;;;28.46;42.98
69173;BME280;56280;49.662;8.408;2023-09-08T09:50:30;100906.94;;;28.48;42.70
69173;BME280;56280;49.662;8.408;2023-09-08T09:53:01;100908.72;;;28.72;42.89
69173;BME280;56280;49.662;8.408;2023-09-08T09:55:27;100891.72;;;28.82;41.74
69173;BME280;56280;49.662;8.408;2023-09-08T09:57:57;100888.16;;;28.82;41.57
69173;BME280;56280;49.662;8.408;2023-09-08T10:00:25;100906.56;;;28.86;42.78
69173;BME280;56280;49.662;8.408;2023-09-08T10:02:51;100898.72;;;28.90;41.58
69173;BME280;56280;49.662;8.408;2023-09-08T10:05:16;100872.00;;;28.92;43.58
69173;BME280;56280;49.662;8.408;2023-09-08T10:07:42;100875.81;;;28.91;41.62
69173;BME280;56280;49.662;8.408;2023-09-08T10:10:08;100873.56;;;29.00;42.42
69173;BME280;56280;49.662;8.408;2023-09-08T10:12:35;100873.06;;;28.91;41.70
69173;BME280;56280;49.662;8.408;2023-09-08T10:15:02;100880.59;;;28.53;41.45
69173;BME280;56280;49.662;8.408;2023-09-08T10:17:30;100894.47;;;28.40;42.31
69173;BME280;56280;49.662;8.408;2023-09-08T10:19:57;100883.72;;;28.57;41.87
69173;BME280;56280;49.662;8.408;2023-09-08T10:22:30;100883.38;;;28.65;43.12
69173;BME280;56280;49.662;8.408;2023-09-08T10:24:57;100882.69;;;28.82;42.29
69173;BME280;56280;49.662;8.408;2023-09-08T10:27:23;100881.13;;;28.32;42.44
69173;BME280;56280;49.662;8.408;2023-09-08T10:29:49;100880.41;;;27.76;44.54
69173;BME280;56280;49.662;8.408;2023-09-08T10:32:15;100871.78;;;27.42;44.78
69173;BME280;56280;49.662;8.408;2023-09-08T10:34:42;100857.38;;;27.53;43.87
69173;BME280;56280;49.662;8.408;2023-09-08T10:37:25;100858.31;;;26.78;44.77
69173;BME280;56280;49.662;8.408;2023-09-08T10:39:53;100880.00;;;27.35;44.15
69173;BME280;56280;49.662;8.408;2023-09-08T10:42:20;100872.81;;;27.78;44.39
69173;BME280;56280;49.662;8.408;2023-09-08T10:47:18;100856.34;;;27.29;44.68
69173;BME280;56280;49.662;8.408;2023-09-08T10:49:44;100866.06;;;27.43;44.79
69173;BME280;56280;49.662;8.408;2023-09-08T10:52:13;100872.81;;;27.59;44.43
69173;BME280;56280;49.662;8.408;2023-09-08T10:54:43;100875.25;;;27.49;44.71
69173;BME280;56280;49.662;8.408;2023-09-08T10:57:16;100856.53;;;27.34;44.62
69173;BME280;56280;49.662;8.408;2023-09-08T11:02:36;100862.53;;;27.61;45.01
69173;BME280;56280;49.662;8.408;2023-09-08T11:05:10;100849.25;;;27.65;44.19
69173;BME280;56280;49.662;8.408;2023-09-08T11:07:37;100853.59;;;27.36;45.41
69173;BME280;56280;49.662;8.408;2023-09-08T11:10:03;100865.78;;;27.52;45.09
69173;BME280;56280;49.662;8.408;2023-09-08T11:12:30;100864.16;;;27.62;44.16
69173;BME280;56280;49.662;8.408;2023-09-08T11:14:55;100861.03;;;28.26;43.87
69173;BME280;56280;49.662;8.408;2023-09-08T11:17:24;100850.41;;;28.48;43.13
69173;BME280;56280;49.662;8.408;2023-09-08T11:19:51;100846.56;;;28.80;42.50
69173;BME280;56280;49.662;8.408;2023-09-08T11:22:17;100839.50;;;28.48;42.87
69173;BME280;56280;49.662;8.408;2023-09-08T11:24:43;100844.84;;;28.13;43.88
69173;BME280;56280;49.662;8.408;2023-09-08T11:27:12;100854.56;;;27.60;44.52
69173;BME280;56280;49.662;8.408;2023-09-08T11:29:38;100829.53;;;27.44;45.16
69173;BME280;56280;49.662;8.408;2023-09-08T11:32:06;100836.41;;;27.65;44.92
69173;BME280;56280;49.662;8.408;2023-09-08T11:34:32;100844.28;;;27.92;43.97
69173;BME280;56280;49.662;8.408;2023-09-08T11:36:58;100837.69;;;28.54;43.67
69173;BME280;56280;49.662;8.408;2023-09-08T11:39:24;100830.38;;;28.90;43.20
69173;BME280;56280;49.662;8.408;2023-09-08T11:41:51;100838.00;;;29.00;42.25
69173;BME280;56280;49.662;8.408;2023-09-08T11:44:18;100826.34;;;28.81;42.35
69173;BME280;56280;49.662;8.408;2023-09-08T11:46:43;100801.41;;;28.77;42.30
69173;BME280;56280;49.662;8.408;2023-09-08T11:49:08;100831.81;;;28.81;42.65
69173;BME280;56280;49.662;8.408;2023-09-08T11:51:34;100815.78;;;28.30;43.25
69173;BME280;56280;49.662;8.408;2023-09-08T11:53:59;100818.41;;;28.25;44.27
69173;BME280;56280;49.662;8.408;2023-09-08T11:56:25;100800.16;;;28.49;42.82
69173;BME280;56280;49.662;8.408;2023-09-08T11:58:51;100818.38;;;28.91;42.39
69173;BME280;56280;49.662;8.408;2023-09-08T12:01:17;100821.22;;;29.08;44.52
69173;BME280;56280;49.662;8.408;2023-09-08T12:03:55;100816.81;;;29.19;42.35
69173;BME280;56280;49.662;8.408;2023-09-08T12:06:27;100814.47;;;28.87;41.92
69173;BME280;56280;49.662;8.408;2023-09-08T12:09:00;100809.69;;;29.18;42.15
69173;BME280;56280;49.662;8.408;2023-09-08T12:11:34;100812.66;;;29.16;41.43
69173;BME280;56280;49.662;8.408;2023-09-08T12:14:01;100802.03;;;29.43;42.33
69173;BME280;56280;49.662;8.408;2023-09-08T12:16:26;100798.03;;;29.63;41.84
69173;BME280;56280;49.662;8.408;2023-09-08T12:18:51;100810.25;;;29.84;41.74
69173;BME280;56280;49.662;8.408;2023-09-08T12:21:17;100789.41;;;29.42;41.52
69173;BME280;56280;49.662;8.408;2023-09-08T12:23:50;100805.69;;;29.49;42.29
69173;BME280;56280;49.662;8.408;2023-09-08T12:26:16;100796.28;;;29.57;41.77
69173;BME280;56280;49.662;8.408;2023-09-08T12:28:45;100808.03;;;29.69;41.38
69173;BME280;56280;49.662;8.408;2023-09-08T12:31:13;100790.25;;;29.84;41.23
69173;BME280;56280;49.662;8.408;2023-09-08T12:33:38;100797.44;;;30.02;40.70
69173;BME280;56280;49.662;8.408;2023-09-08T12:36:13;100795.19;;;30.15;40.44
69173;BME280;56280;49.662;8.408;2023-09-08T12:38:40;100794.38;;;30.32;40.70
69173;BME280;56280;49.662;8.408;2023-09-08T12:41:05;100787.91;;;30.38;40.21
69173;BME280;56280;49.662;8.408;2023-09-08T12:43:30;100783.41;;;30.15;40.53
69173;BME280;56280;49.662;8.408;2023-09-08T12:45:55;100765.84;;;29.41;41.39
69173;BME280;56280;49.662;8.408;2023-09-08T12:48:21;100785.06;;;29.30;41.97
69173;BME280;56280;49.662;8.408;2023-09-08T12:50:47;100776.91;;;29.75;41.08
69173;BME280;56280;49.662;8.408;2023-09-08T12:53:16;100785.44;;;29.91;40.76
69173;BME280;56280;49.662;8.408;2023-09-08T12:59:06;100784.03;;;28.95;42.38
69173;BME280;56280;49.662;8.408;2023-09-08T13:08:15;100770.59;;;29.87;41.20
69173;BME280;56280;49.662;8.408;2023-09-08T13:17:24;100758.06;;;29.91;41.06